Time;durP1;ratioP1;P1;durP2;ratioP2;P2;SDS_P1;SDS_P2;PMS_P1;PMS_P2;Temp;Humidity;BMP_temperature;BMP_pressure;BME280_temperature;BME280_humidity;BME280_pressure;Samples;Min_cycle;Max_cycle;Signal;HPM_P1;HPM_P2
2024/03/03 06:49:16;;;;;;;3.10;1.40;;;;;;;;;;5094899;23;20102;-81
2024/03/03 06:58:42;;;;;;;;;;;;;;;;;;;;;
2024/03/03 08:20:48;;;;;;;7.15;2.35;;;;;;;;;;4835309;29;20087;-83
2024/03/03 08:28:24;;;;;;;6.70;2.05;;;;;;;;;;4833817;29;20054;-83
2024/03/03 08:31:39;;;;;;;10.07;2.30;;;;;;;;;;4840926;29;20053;-84
2024/03/03 08:34:30;;;;;;;8.88;3.22;;;;;;;;;;4757452;30;20039;-81
2024/03/03 08:37:16;;;;;;;7.85;2.33;;;;;;;;;;4773988;29;20412;-82
2024/03/03 08:39:43;;;;;;;8.57;2.38;;;;;;;;;;4823191;29;20045;-83
2024/03/03 08:42:24;;;;;;;6.35;1.75;;;;;;;;;;4824398;29;20041;-83
2024/03/03 08:44:50;;;;;;;5.28;1.08;;;;;;;;;;4815803;29;20469;-82
2024/03/03 08:47:16;;;;;;;7.72;2.10;;;;;;;;;;4813883;29;20051;-83
2024/03/03 08:49:42;;;;;;;3.30;1.48;;;;;;;;;;4821567;29;20133;-83
2024/03/03 08:52:11;;;;;;;8.00;1.60;;;;;;;;;;4820505;29;20045;-84
2024/03/03 08:54:37;;;;;;;10.85;1.55;;;;;;;;;;4833195;29;20043;-83
2024/03/03 08:57:09;;;;;;;3.45;1.45;;;;;;;;;;4833472;29;20045;-84
2024/03/03 08:59:41;;;;;;;7.25;1.60;;;;;;;;;;4823076;29;20064;-83
2024/03/03 09:02:11;;;;;;;11.67;1.63;;;;;;;;;;4822515;29;20057;-84
2024/03/03 09:04:43;;;;;;;2.80;0.95;;;;;;;;;;4821466;29;20270;-83
2024/03/03 09:07:15;;;;;;;5.90;2.25;;;;;;;;;;4827656;29;20046;-83
2024/03/03 09:09:56;;;;;;;5.50;2.33;;;;;;;;;;4814769;29;20050;-84
2024/03/03 09:12:22;;;;;;;4.03;1.27;;;;;;;;;;4824115;29;20289;-83
2024/03/03 09:15:01;;;;;;;;;;;;;;;;;;;;;
2024/03/03 09:17:27;;;;;;;6.13;1.77;;;;;;;;;;4842935;29;20393;-83
2024/03/03 09:29:44;;;;;;;5.20;1.65;;;;;;;;;;4854247;29;20868;-84
2024/03/03 09:38:47;;;;;;;4.80;1.50;;;;;;;;;;4824878;29;20054;-84
2024/03/03 09:45:18;;;;;;;;;;;;;;;;;;;;;
2024/03/03 09:48:23;;;;;;;;;;;;;;;;;;;;;
2024/03/03 10:04:54;;;;;;;3.75;0.75;;;;;;;;;;4835150;29;20052;-84
2024/03/03 10:27:02;;;;;;;5.73;0.90;;;;;;;;;;4792690;29;20085;-83
2024/03/03 10:29:36;;;;;;;2.45;0.77;;;;;;;;;;4784098;29;20048;-83
2024/03/03 10:32:10;;;;;;;2.33;0.80;;;;;;;;;;4820406;29;20118;-84
2024/03/03 10:34:39;;;;;;;3.13;0.70;;;;;;;;;;4836562;29;20457;-84
2024/03/03 10:37:07;;;;;;;6.32;1.40;;;;;;;;;;4819219;29;20043;-83
2024/03/03 10:39:52;;;;;;;5.25;0.85;;;;;;;;;;4805816;29;20038;-83
2024/03/03 10:42:31;;;;;;;5.22;1.10;;;;;;;;;;4815161;29;20057;-84
2024/03/03 10:47:35;;;;;;;3.90;0.95;;;;;;;;;;942424;24;20528;-84
2024/03/03 10:50:02;;;;;;;2.72;0.95;;;;;;;;;;4843026;29;20046;-83
2024/03/03 10:52:30;;;;;;;3.17;0.73;;;;;;;;;;4840608;29;20480;-82
2024/03/03 10:54:57;;;;;;;4.50;0.88;;;;;;;;;;4859969;29;20037;-82
2024/03/03 10:57:25;;;;;;;2.53;0.57;;;;;;;;;;4843748;29;20817;-80
2024/03/03 10:59:52;;;;;;;4.07;1.15;;;;;;;;;;4850193;29;20041;-83
2024/03/03 11:17:09;;;;;;;2.08;0.82;;;;;;;;;;4876455;24;20192;-83
2024/03/03 11:23:09;;;;;;;6.22;0.95;;;;;;;;;;4848296;29;20050;-84
2024/03/03 11:25:40;;;;;;;5.22;1.30;;;;;;;;;;4838129;29;20101;-85
2024/03/03 11:28:09;;;;;;;4.30;1.55;;;;;;;;;;4859988;29;20090;-84
2024/03/03 11:30:36;;;;;;;4.38;1.23;;;;;;;;;;4861121;29;20073;-86
2024/03/03 11:36:31;;;;;;;2.22;0.73;;;;;;;;;;4804310;29;20627;-85
2024/03/03 11:39:09;;;;;;;4.68;1.90;;;;;;;;;;4836657;24;20052;-86
2024/03/03 11:42:02;;;;;;;3.45;0.73;;;;;;;;;;4842059;29;20037;-87
2024/03/03 11:44:37;;;;;;;2.80;0.90;;;;;;;;;;4845695;29;20429;-87
2024/03/03 11:47:03;;;;;;;6.30;1.30;;;;;;;;;;4845595;29;20050;-86
2024/03/03 11:49:42;;;;;;;3.05;0.82;;;;;;;;;;4860624;29;20116;-88
2024/03/03 11:54:41;;;;;;;2.53;1.13;;;;;;;;;;4855276;29;20568;-84
2024/03/03 12:00:23;;;;;;;5.20;1.92;;;;;;;;;;4846318;29;20442;-88
2024/03/03 12:03:00;;;;;;;7.97;2.00;;;;;;;;;;4858923;29;20054;-84
2024/03/03 12:05:26;;;;;;;4.43;1.02;;;;;;;;;;4849710;29;20041;-86
2024/03/03 12:07:56;;;;;;;3.17;1.10;;;;;;;;;;4845309;29;20045;-87
2024/03/03 12:10:31;;;;;;;6.80;2.55;;;;;;;;;;4845881;29;20038;-87
2024/03/03 12:12:58;;;;;;;7.20;1.30;;;;;;;;;;4838476;29;20052;-83
2024/03/03 12:15:28;;;;;;;4.47;1.38;;;;;;;;;;4839095;29;20041;-90
2024/03/03 12:18:04;;;;;;;5.40;1.67;;;;;;;;;;4827177;29;20042;-85
2024/03/03 12:21:36;;;;;;;7.28;1.50;;;;;;;;;;4854740;29;20094;-85
2024/03/03 12:23:29;;;;;;;5.28;1.65;;;;;;;;;;4836487;29;20041;-86
2024/03/03 12:25:55;;;;;;;6.25;1.58;;;;;;;;;;4838346;29;20156;-81
2024/03/03 12:43:26;;;;;;;;;;;;;;;;;;;;;
2024/03/03 12:49:23;;;;;;;4.70;1.20;;;;;;;;;;4705818;30;20685;-83
2024/03/03 12:52:00;;;;;;;2.60;0.73;;;;;;;;;;4781059;30;20054;-83
2024/03/03 13:05:28;;;;;;;4.90;0.90;;;;;;;;;;4843819;29;20058;-83
2024/03/03 13:08:00;;;;;;;3.33;1.00;;;;;;;;;;4839266;29;20052;-84
2024/03/03 13:11:03;;;;;;;3.35;1.35;;;;;;;;;;4833633;29;20504;-84
2024/03/03 13:13:29;;;;;;;4.60;1.30;;;;;;;;;;4780605;29;20467;-84
2024/03/03 13:16:16;;;;;;;6.28;1.23;;;;;;;;;;4841887;29;20124;-88
2024/03/03 13:18:42;;;;;;;4.15;0.90;;;;;;;;;;4837464;29;20056;-85
2024/03/03 13:21:19;;;;;;;4.78;1.02;;;;;;;;;;4835985;29;20113;-85
2024/03/03 13:24:11;;;;;;;2.83;0.77;;;;;;;;;;4848414;29;20078;-84
2024/03/03 13:26:38;;;;;;;3.58;0.95;;;;;;;;;;4841770;29;20064;-90
2024/03/03 13:29:21;;;;;;;4.05;1.23;;;;;;;;;;4842438;29;20044;-90
2024/03/03 13:31:56;;;;;;;3.45;0.90;;;;;;;;;;4837643;29;20042;-85
2024/03/03 13:34:41;;;;;;;4.18;0.98;;;;;;;;;;4831302;29;20805;-85
2024/03/03 13:37:08;;;;;;;3.72;0.73;;;;;;;;;;4838001;29;20054;-89
2024/03/03 13:39:34;;;;;;;5.38;0.85;;;;;;;;;;4836956;29;20050;-85
2024/03/03 13:42:00;;;;;;;3.03;1.05;;;;;;;;;;4838038;29;20041;-87
2024/03/03 13:45:04;;;;;;;4.63;0.85;;;;;;;;;;4841471;29;20056;-90
2024/03/03 13:47:30;;;;;;;2.30;0.93;;;;;;;;;;4831022;29;20042;-90
2024/03/03 13:50:24;;;;;;;1.40;0.60;;;;;;;;;;5078454;24;20400;-92
2024/03/03 13:52:50;;;;;;;3.47;1.13;;;;;;;;;;4837966;29;20097;-84
2024/03/03 13:55:20;;;;;;;1.55;0.43;;;;;;;;;;4846183;29;20053;-87
2024/03/03 13:57:46;;;;;;;1.98;0.80;;;;;;;;;;4828414;29;20125;-91
2024/03/03 14:00:14;;;;;;;1.85;0.63;;;;;;;;;;4839689;29;20461;-89
2024/03/03 14:02:44;;;;;;;1.40;0.45;;;;;;;;;;4839585;29;20586;-89
2024/03/03 14:05:10;;;;;;;2.70;0.52;;;;;;;;;;4834992;29;20042;-91
2024/03/03 14:07:36;;;;;;;2.10;0.40;;;;;;;;;;4834365;29;20046;-87
2024/03/03 14:10:18;;;;;;;1.15;0.38;;;;;;;;;;4838724;29;20065;-92
2024/03/03 14:12:44;;;;;;;1.90;0.73;;;;;;;;;;4827428;29;20227;-88
2024/03/03 14:15:10;;;;;;;1.45;0.60;;;;;;;;;;4843437;29;20219;-89
2024/03/03 14:17:36;;;;;;;1.33;0.30;;;;;;;;;;4837191;29;20042;-90
2024/03/03 14:20:12;;;;;;;4.00;0.70;;;;;;;;;;4842718;29;20296;-90
2024/03/03 14:22:41;;;;;;;1.40;0.45;;;;;;;;;;4851400;29;20106;-88
2024/03/03 14:25:10;;;;;;;0.98;0.50;;;;;;;;;;4836215;29;20037;-87
2024/03/03 14:27:40;;;;;;;1.58;0.40;;;;;;;;;;4839326;29;20839;-88
2024/03/03 14:30:06;;;;;;;0.65;0.20;;;;;;;;;;4855003;29;20108;-89
2024/03/03 14:32:32;;;;;;;2.05;0.30;;;;;;;;;;4835606;29;20042;-88
2024/03/03 14:34:58;;;;;;;0.95;0.30;;;;;;;;;;4830560;29;20053;-88
2024/03/03 14:37:24;;;;;;;1.02;0.45;;;;;;;;;;4834416;29;20042;-89
2024/03/03 14:39:51;;;;;;;8.60;0.65;;;;;;;;;;4832916;29;20046;-87
2024/03/03 14:42:18;;;;;;;0.93;0.40;;;;;;;;;;4833910;29;20072;-88
2024/03/03 14:44:44;;;;;;;1.15;0.20;;;;;;;;;;4830637;29;20073;-88
2024/03/03 14:47:10;;;;;;;1.67;0.47;;;;;;;;;;4835027;29;20511;-85
2024/03/03 14:49:36;;;;;;;10.52;0.65;;;;;;;;;;4836438;29;20041;-85
2024/03/03 14:52:02;;;;;;;0.57;0.30;;;;;;;;;;4853878;29;20047;-86
2024/03/03 14:54:28;;;;;;;5.05;1.13;;;;;;;;;;4847862;29;20436;-86
2024/03/03 14:56:56;;;;;;;0.25;0.17;;;;;;;;;;4833642;29;20053;-85
2024/03/03 14:59:22;;;;;;;3.80;0.63;;;;;;;;;;4844041;29;20037;-88
2024/03/03 15:01:48;;;;;;;0.75;0.40;;;;;;;;;;4839668;29;20140;-87
2024/03/03 15:04:14;;;;;;;1.15;0.30;;;;;;;;;;4828962;29;20062;-84
2024/03/03 15:06:46;;;;;;;0.43;0.20;;;;;;;;;;4850720;29;20085;-91
2024/03/03 15:09:12;;;;;;;0.70;0.20;;;;;;;;;;4832554;29;20049;-87
2024/03/03 15:11:47;;;;;;;0.80;0.40;;;;;;;;;;4838641;29;20081;-91
2024/03/03 15:23:06;;;;;;;2.88;0.40;;;;;;;;;;5519279;23;20333;-89
2024/03/03 15:25:32;;;;;;;4.22;0.30;;;;;;;;;;4853381;29;20045;-89
2024/03/03 15:40:46;;;;;;;1.60;0.60;;;;;;;;;;4822321;29;20200;-88
2024/03/03 15:55:16;;;;;;;0.63;0.25;;;;;;;;;;4843903;29;20102;-90
2024/03/03 16:08:33;;;;;;;0.57;0.22;;;;;;;;;;4857820;24;20057;-84
2024/03/03 16:10:59;;;;;;;0.95;0.32;;;;;;;;;;4837186;29;20054;-84
2024/03/03 16:13:25;;;;;;;1.13;0.30;;;;;;;;;;4848378;29;20125;-83
2024/03/03 16:15:51;;;;;;;2.50;0.35;;;;;;;;;;4855353;29;20080;-82
2024/03/03 16:18:17;;;;;;;5.50;1.35;;;;;;;;;;4854344;29;20098;-84
2024/03/03 16:20:46;;;;;;;1.40;0.50;;;;;;;;;;4842192;29;20041;-84
2024/03/03 16:23:13;;;;;;;1.85;0.65;;;;;;;;;;4839247;29;20145;-85
2024/03/03 16:25:40;;;;;;;1.30;0.30;;;;;;;;;;4842636;29;20056;-84
2024/03/03 16:28:07;;;;;;;0.20;0.10;;;;;;;;;;4839411;29;20049;-82
2024/03/03 16:30:33;;;;;;;2.60;0.60;;;;;;;;;;4856863;29;20038;-82
2024/03/03 16:32:59;;;;;;;4.00;0.73;;;;;;;;;;4844384;29;20085;-83
2024/03/03 16:35:25;;;;;;;2.17;0.40;;;;;;;;;;4843683;29;20069;-83
2024/03/03 16:37:51;;;;;;;1.00;0.28;;;;;;;;;;4850471;29;20097;-82
2024/03/03 16:40:18;;;;;;;1.13;0.40;;;;;;;;;;4848233;29;20057;-83
2024/03/03 16:43:03;;;;;;;0.80;0.40;;;;;;;;;;4834288;29;20141;-83
2024/03/03 16:45:30;;;;;;;0.28;0.10;;;;;;;;;;4851245;29;20049;-83
2024/03/03 16:47:56;;;;;;;0.28;0.10;;;;;;;;;;4837394;29;20053;-83
2024/03/03 16:50:26;;;;;;;0.40;0.20;;;;;;;;;;4834134;29;20046;-82
2024/03/03 16:52:53;;;;;;;0.85;0.20;;;;;;;;;;4833156;29;20053;-83
2024/03/03 16:55:21;;;;;;;1.88;0.40;;;;;;;;;;4845676;29;20557;-82
2024/03/03 16:57:47;;;;;;;0.30;0.13;;;;;;;;;;4837643;29;20050;-82
2024/03/03 17:00:14;;;;;;;0.28;0.10;;;;;;;;;;4858336;29;20069;-83
2024/03/03 17:02:40;;;;;;;0.40;0.20;;;;;;;;;;4852478;29;20046;-81
2024/03/03 17:05:10;;;;;;;0.80;0.17;;;;;;;;;;4858910;29;20045;-83
2024/03/03 17:07:37;;;;;;;0.77;0.52;;;;;;;;;;4834774;29;20062;-82
2024/03/03 17:10:04;;;;;;;0.50;0.20;;;;;;;;;;4850128;29;20048;-82
2024/03/03 17:12:30;;;;;;;0.50;0.20;;;;;;;;;;4841107;29;20153;-83
2024/03/03 17:14:56;;;;;;;0.38;0.15;;;;;;;;;;4840987;29;20050;-82
2024/03/03 17:17:22;;;;;;;1.45;0.15;;;;;;;;;;4836024;29;20049;-82
2024/03/03 17:19:48;;;;;;;0.20;0.10;;;;;;;;;;4849572;29;20084;-82
2024/03/03 17:22:14;;;;;;;0.90;0.20;;;;;;;;;;4835674;29;20052;-82
2024/03/03 17:24:40;;;;;;;0.63;0.35;;;;;;;;;;4857162;29;20114;-82
2024/03/03 17:27:06;;;;;;;0.85;0.13;;;;;;;;;;4860112;29;20046;-79
2024/03/03 17:29:32;;;;;;;1.23;0.30;;;;;;;;;;4857930;29;20049;-80
2024/03/03 17:31:58;;;;;;;0.17;0.13;;;;;;;;;;4847542;29;20042;-81
2024/03/03 17:34:25;;;;;;;1.10;0.60;;;;;;;;;;4853204;29;20117;-81
2024/03/03 17:36:51;;;;;;;0.90;0.20;;;;;;;;;;4860938;29;20077;-81
2024/03/03 17:39:17;;;;;;;0.47;0.30;;;;;;;;;;4838679;29;20404;-83
2024/03/03 17:41:44;;;;;;;0.28;0.25;;;;;;;;;;4843462;29;20050;-80
2024/03/03 17:44:10;;;;;;;1.33;0.40;;;;;;;;;;4855235;29;20041;-80
2024/03/03 17:46:37;;;;;;;1.70;0.20;;;;;;;;;;4845257;29;20060;-80
2024/03/03 17:49:06;;;;;;;2.53;0.30;;;;;;;;;;4850675;29;20038;-80
2024/03/03 17:51:32;;;;;;;0.45;0.28;;;;;;;;;;4855459;29;20050;-81
2024/03/03 17:53:58;;;;;;;1.60;0.38;;;;;;;;;;4855836;29;20555;-80
2024/03/03 17:56:24;;;;;;;1.20;0.35;;;;;;;;;;4841739;29;20054;-82
2024/03/03 17:58:50;;;;;;;1.77;0.60;;;;;;;;;;4854604;29;20057;-82
2024/03/03 18:01:19;;;;;;;0.80;0.47;;;;;;;;;;4878068;24;20049;-82
2024/03/03 18:03:50;;;;;;;0.98;0.47;;;;;;;;;;4834294;29;20042;-83
2024/03/03 18:06:17;;;;;;;1.45;0.60;;;;;;;;;;4818085;29;20054;-81
2024/03/03 18:08:43;;;;;;;1.40;0.50;;;;;;;;;;4834575;29;20041;-81
2024/03/03 18:11:09;;;;;;;1.23;0.30;;;;;;;;;;4828501;29;20114;-81
2024/03/03 18:13:35;;;;;;;1.25;0.63;;;;;;;;;;4836976;29;20899;-81
2024/03/03 18:16:04;;;;;;;1.27;0.30;;;;;;;;;;4825779;29;20061;-82
2024/03/03 18:18:30;;;;;;;2.00;0.40;;;;;;;;;;4840327;29;20073;-82
2024/03/03 18:20:56;;;;;;;1.65;0.28;;;;;;;;;;4840369;29;20050;-81
2024/03/03 18:23:24;;;;;;;0.45;0.15;;;;;;;;;;4837484;29;20712;-81
2024/03/03 18:25:50;;;;;;;1.60;0.30;;;;;;;;;;4831366;29;20050;-84
2024/03/03 18:28:17;;;;;;;1.70;0.40;;;;;;;;;;4833630;29;20069;-81
2024/03/03 18:30:43;;;;;;;0.45;0.20;;;;;;;;;;4840815;29;20401;-82
2024/03/03 18:33:10;;;;;;;1.30;0.30;;;;;;;;;;4819465;29;20069;-82
2024/03/03 18:35:36;;;;;;;2.05;0.20;;;;;;;;;;4822704;29;20089;-82
2024/03/03 18:38:03;;;;;;;0.25;0.10;;;;;;;;;;4823654;29;20069;-81
2024/03/03 18:40:29;;;;;;;1.40;0.40;;;;;;;;;;4837163;29;20132;-83
2024/03/03 18:42:55;;;;;;;0.50;0.30;;;;;;;;;;4815340;29;20061;-83
2024/03/03 18:45:21;;;;;;;0.85;0.30;;;;;;;;;;4839673;29;20477;-83
2024/03/03 18:47:49;;;;;;;1.63;0.40;;;;;;;;;;4831474;29;20042;-83
2024/03/03 18:50:20;;;;;;;0.52;0.17;;;;;;;;;;4840060;29;20038;-82
2024/03/03 18:53:24;;;;;;;0.68;0.20;;;;;;;;;;4823682;29;20217;-82
2024/03/03 18:55:53;;;;;;;0.50;0.32;;;;;;;;;;4825274;29;20054;-81
2024/03/03 18:58:19;;;;;;;0.13;0.10;;;;;;;;;;4829925;29;20057;-82
2024/03/03 19:00:56;;;;;;;0.98;0.30;;;;;;;;;;4814741;29;20572;-81
2024/03/03 19:09:47;;;;;;;0.35;0.10;;;;;;;;;;4783132;30;20050;-81
2024/03/03 19:12:23;;;;;;;0.60;0.15;;;;;;;;;;4836499;29;20077;-80
2024/03/03 19:14:50;;;;;;;0.82;0.25;;;;;;;;;;4828407;29;20492;-81
2024/03/03 19:17:29;;;;;;;;;;;;;;;;;;;;;
2024/03/03 19:19:55;;;;;;;0.28;0.20;;;;;;;;;;4836856;29;20112;-81
2024/03/03 19:25:47;;;;;;;;;;;;;;;;;;;;;
2024/03/03 19:31:18;;;;;;;;;;;;;;;;;;;;;
2024/03/03 19:39:32;;;;;;;1.75;0.22;;;;;;;;;;4836802;29;20069;-82
2024/03/03 19:42:22;;;;;;;;;;;;;;;;;;;;;
2024/03/03 19:45:31;;;;;;;0.68;0.10;;;;;;;;;;4838288;29;20797;-83
2024/03/03 19:48:20;;;;;;;0.82;0.20;;;;;;;;;;4819074;29;20058;-83
2024/03/03 19:54:25;;;;;;;;;;;;;;;;;;;;;
2024/03/03 20:12:56;;;;;;;1.42;0.20;;;;;;;;;;4659804;30;20062;-84
2024/03/03 20:19:49;;;;;;;;;;;;;;;;;;;;;
2024/03/03 20:22:32;;;;;;;;;;;;;;;;;;;;;
2024/03/03 20:28:02;;;;;;;3.47;0.60;;;;;;;;;;4837533;29;20129;-84
2024/03/03 20:30:30;;;;;;;0.98;0.65;;;;;;;;;;4823921;29;20384;-84
2024/03/03 20:33:02;;;;;;;1.55;0.35;;;;;;;;;;4816558;29;20069;-84
2024/03/03 20:35:31;;;;;;;1.42;0.50;;;;;;;;;;4819773;29;20134;-84
2024/03/03 20:38:02;;;;;;;1.80;0.45;;;;;;;;;;4813205;29;20039;-84
2024/03/03 20:40:31;;;;;;;3.78;0.40;;;;;;;;;;4810773;29;20065;-84
2024/03/03 20:49:17;;;;;;;6.22;0.63;;;;;;;;;;4835555;29;20560;-84
2024/03/03 20:51:46;;;;;;;1.48;0.47;;;;;;;;;;4842049;29;20065;-84
2024/03/03 20:54:30;;;;;;;1.80;0.32;;;;;;;;;;4842087;29;20041;-85
2024/03/03 20:56:59;;;;;;;1.35;0.30;;;;;;;;;;4842308;29;20060;-84
2024/03/03 20:59:57;;;;;;;1.45;0.20;;;;;;;;;;4839218;29;20138;-84
2024/03/03 21:02:29;;;;;;;0.75;0.38;;;;;;;;;;4830856;29;20074;-84
2024/03/03 21:05:33;;;;;;;1.40;0.20;;;;;;;;;;4824267;29;20060;-84
2024/03/03 21:08:04;;;;;;;0.43;0.17;;;;;;;;;;4815193;29;20095;-84
2024/03/03 21:10:39;;;;;;;1.83;0.30;;;;;;;;;;4821439;29;20070;-85
2024/03/03 21:16:18;;;;;;;4.90;0.80;;;;;;;;;;4836946;29;20049;-85
2024/03/03 21:18:48;;;;;;;0.80;0.20;;;;;;;;;;4823694;29;20882;-84
2024/03/03 21:21:56;;;;;;;;;;;;;;;;;;;;;
2024/03/03 21:24:40;;;;;;;;;;;;;;;;;;;;;
2024/03/03 21:27:09;;;;;;;1.15;0.43;;;;;;;;;;4810055;29;20048;-84
2024/03/03 21:29:44;;;;;;;4.22;0.20;;;;;;;;;;4835345;29;20106;-84
2024/03/03 21:32:18;;;;;;;1.33;0.57;;;;;;;;;;4839999;29;20499;-85
2024/03/03 21:38:12;;;;;;;2.80;0.25;;;;;;;;;;4848306;29;20058;-84
2024/03/03 21:41:00;;;;;;;0.75;0.20;;;;;;;;;;4842670;29;20416;-84
2024/03/03 21:43:38;;;;;;;;;;;;;;;;;;;;;
2024/03/03 21:49:28;;;;;;;1.48;0.40;;;;;;;;;;4804450;29;20054;-84
2024/03/03 21:52:06;;;;;;;0.20;0.10;;;;;;;;;;4842683;29;20473;-84
2024/03/03 21:54:48;;;;;;;0.63;0.20;;;;;;;;;;4831468;29;20053;-85
2024/03/03 21:57:14;;;;;;;;;;;;;;;;;;4840493;29;20049;-85
2024/03/03 22:00:21;;;;;;;0.45;0.28;;;;;;;;;;4838947;29;20003;-85
2024/03/03 22:03:53;;;;;;;0.73;0.30;;;;;;;;;;4825947;29;20060;-85
2024/03/03 22:06:15;;;;;;;1.20;0.25;;;;;;;;;;4833873;29;20046;-84
2024/03/03 22:08:41;;;;;;;0.43;0.20;;;;;;;;;;4839858;29;20118;-85
2024/03/03 22:11:12;;;;;;;0.65;0.30;;;;;;;;;;4831348;29;20046;-84
2024/03/03 22:16:36;;;;;;;6.95;0.55;;;;;;;;;;4850527;29;20053;-84
2024/03/03 22:19:28;;;;;;;0.98;0.32;;;;;;;;;;4831957;29;20057;-84
2024/03/03 22:22:00;;;;;;;1.48;0.70;;;;;;;;;;4826340;29;20060;-84
2024/03/03 22:27:36;;;;;;;1.00;0.47;;;;;;;;;;4819469;29;20135;-84
2024/03/03 22:30:14;;;;;;;0.95;0.35;;;;;;;;;;4796867;29;20039;-85
2024/03/03 22:32:50;;;;;;;1.65;0.43;;;;;;;;;;4800666;29;20061;-85
2024/03/03 22:35:36;;;;;;;0.70;0.40;;;;;;;;;;4796652;29;20066;-85
2024/03/03 22:38:02;;;;;;;1.52;0.50;;;;;;;;;;4801672;29;20148;-85
2024/03/03 22:40:29;;;;;;;1.10;0.30;;;;;;;;;;4803117;29;20039;-85
2024/03/03 22:43:01;;;;;;;0.30;0.20;;;;;;;;;;4800693;29;20098;-85
2024/03/03 22:45:38;;;;;;;0.88;0.28;;;;;;;;;;4790074;29;20058;-85
2024/03/03 22:48:19;;;;;;;1.15;0.40;;;;;;;;;;4797669;29;20075;-85
2024/03/03 22:54:17;;;;;;;1.60;0.43;;;;;;;;;;4803135;29;20078;-85
2024/03/03 22:59:53;;;;;;;1.02;0.40;;;;;;;;;;4842499;29;20049;-84
2024/03/03 23:02:20;;;;;;;5.03;0.43;;;;;;;;;;4838690;29;20037;-84
2024/03/03 23:04:49;;;;;;;2.38;0.20;;;;;;;;;;4832748;29;20493;-84
2024/03/03 23:07:15;;;;;;;1.15;0.28;;;;;;;;;;4840934;29;20038;-84
2024/03/03 23:10:15;;;;;;;;;;;;;;;;;;;;;
2024/03/03 23:13:16;;;;;;;0.70;0.10;;;;;;;;;;4851344;29;20037;-85
2024/03/03 23:16:02;;;;;;;0.80;0.20;;;;;;;;;;4832235;29;20046;-85
2024/03/03 23:27:26;;;;;;;0.52;0.20;;;;;;;;;;4849369;29;20058;-85
2024/03/03 23:29:55;;;;;;;2.67;0.17;;;;;;;;;;4829689;29;20050;-85
2024/03/03 23:35:40;;;;;;;0.95;0.43;;;;;;;;;;4843053;29;20064;-85
2024/03/03 23:38:09;;;;;;;1.35;0.25;;;;;;;;;;4835073;29;20053;-85
2024/03/03 23:40:44;;;;;;;0.20;0.10;;;;;;;;;;4831314;29;20793;-85
2024/03/03 23:43:42;;;;;;;3.22;1.23;;;;;;;;;;4836375;29;20053;-85
2024/03/03 23:46:19;;;;;;;0.63;0.20;;;;;;;;;;4836531;29;20136;-85
2024/03/03 23:49:12;;;;;;;0.40;0.20;;;;;;;;;;4836073;29;20049;-85
2024/03/03 23:51:51;;;;;;;0.90;0.40;;;;;;;;;;4823936;29;20065;-85
2024/03/03 23:54:26;;;;;;;0.30;0.10;;;;;;;;;;4829383;29;20062;-85
2024/03/03 23:57:05;;;;;;;0.73;0.20;;;;;;;;;;4818732;29;20043;-85
2024/03/03 23:59:37;;;;;;;0.95;0.20;;;;;;;;;;4814535;29;20145;-85
